Time,TemperatureF,DewpointF,PressureIn,WindDirection,WindDirectionDegrees,WindSpeedMPH,WindSpeedGustMPH,Humidity,HourlyPrecipIn,Conditions,Clouds,dailyrainin,SoftwareType,DateUTC
2013-08-28 00:13:00,69.4,65.0,29.98,ENE,62,3.0,5.0,86,0.00,,,0.00,weatherlink.com 1.10,2013-08-27 22:13:00,
2013-08-28 00:28:00,69.3,65.0,29.98,East,82,5.0,6.0,86,0.00,,,0.00,weatherlink.com 1.10,2013-08-27 22:28:00,
2013-08-28 00:43:00,69.3,65.0,29.98,East,86,2.0,4.0,86,0.00,,,0.00,weatherlink.com 1.10,2013-08-27 22:43:00,
2013-08-28 00:58:00,69.6,65.0,29.99,ENE,66,4.0,4.0,85,0.00,,,0.00,weatherlink.com 1.10,2013-08-27 22:58:00,
2013-08-28 01:13:00,70.0,65.0,29.99,ENE,63,2.0,3.0,84,0.00,,,0.00,weatherlink.com 1.10,2013-08-27 23:13:00,
2013-08-28 01:28:00,69.9,65.0,29.99,ENE,59,1.0,3.0,85,0.00,,,0.00,weatherlink.com 1.10,2013-08-27 23:28:00,
2013-08-28 01:43:00,69.9,65.0,29.99,NNW,334,2.0,3.0,85,0.00,,,0.00,weatherlink.com 1.10,2013-08-27 23:43:00,
2013-08-28 01:58:00,69.4,65.0,29.99,NW,323,0.0,2.0,86,0.00,,,0.00,weatherlink.com 1.10,2013-08-27 23:58:00,
2013-08-28 02:13:00,69.6,65.0,29.98,ENE,58,1.0,2.0,86,0.00,,,0.00,weatherlink.com 1.10,2013-08-28 00:13:00,
2013-08-28 02:28:00,69.6,65.0,29.97,ENE,62,2.0,5.0,86,0.00,,,0.00,weatherlink.com 1.10,2013-08-28 00:28:00,
2013-08-28 02:43:00,69.7,65.0,29.97,ENE,60,4.0,4.0,85,0.00,,,0.00,weatherlink.com 1.10,2013-08-28 00:43:00,
2013-08-28 02:58:00,69.2,65.0,29.97,NE,52,3.0,5.0,86,0.00,,,0.00,weatherlink.com 1.10,2013-08-28 00:58:00,
2013-08-28 03:13:00,69.5,65.0,29.97,ENE,77,2.0,4.0,86,0.00,,,0.00,weatherlink.com 1.10,2013-08-28 01:13:00,
2013-08-28 03:28:00,69.6,65.0,29.97,ENE,67,1.0,3.0,86,0.00,,,0.00,weatherlink.com 1.10,2013-08-28 01:28:00,
2013-08-28 03:43:00,69.7,65.0,29.97,East,86,2.0,3.0,86,0.00,,,0.00,weatherlink.com 1.10,2013-08-28 01:43:00,
2013-08-28 03:58:00,69.8,65.0,29.96,ENE,68,2.0,3.0,85,0.00,,,0.00,weatherlink.com 1.10,2013-08-28 01:58:00,
2013-08-28 04:13:00,69.7,65.0,29.97,NNE,32,1.0,2.0,86,0.00,,,0.00,weatherlink.com 1.10,2013-08-28 02:13:00,
2013-08-28 04:28:00,69.8,65.0,29.97,NNE,25,4.0,6.0,85,0.00,,,0.00,weatherlink.com 1.10,2013-08-28 02:28:00,
2013-08-28 04:58:00,70.0,65.0,29.96,ENE,73,4.0,4.0,83,0.00,,,0.00,weatherlink.com 1.10,2013-08-28 02:58:00,
2013-08-28 05:13:00,69.5,65.0,29.95,NE,43,5.0,7.0,84,0.00,,,0.00,weatherlink.com 1.10,2013-08-28 03:13:00,
2013-08-28 05:28:00,69.8,64.0,29.96,NE,38,5.0,8.0,83,0.00,,,0.00,weatherlink.com 1.10,2013-08-28 03:28:00,
2013-08-28 05:43:00,69.5,64.0,29.96,NE,40,3.0,9.0,83,0.00,,,0.00,weatherlink.com 1.10,2013-08-28 03:43:00,
2013-08-28 05:58:00,69.4,63.0,29.97,NNE,33,5.0,8.0,81,0.00,,,0.00,weatherlink.com 1.10,2013-08-28 03:58:00,
2013-08-28 06:13:00,69.4,63.0,29.97,NNE,32,5.0,7.0,81,0.00,,,0.00,weatherlink.com 1.10,2013-08-28 04:13:00,
2013-08-28 06:28:00,69.5,63.0,29.97,NE,37,3.0,6.0,80,0.00,,,0.00,weatherlink.com 1.10,2013-08-28 04:28:00,
2013-08-28 06:43:00,69.4,63.0,29.98,NE,54,0.0,6.0,80,0.00,,,0.00,weatherlink.com 1.10,2013-08-28 04:43:00,
2013-08-28 06:58:00,69.2,63.0,29.98,NE,47,2.0,3.0,81,0.00,,,0.00,weatherlink.com 1.10,2013-08-28 04:58:00,
2013-08-28 07:13:00,69.2,64.0,29.99,NE,34,2.0,3.0,82,0.00,,,0.00,weatherlink.com 1.10,2013-08-28 05:13:00,
2013-08-28 07:28:00,68.7,63.0,29.98,NE,37,3.0,5.0,83,0.05,,,0.05,weatherlink.com 1.10,2013-08-28 05:28:00,
2013-08-28 07:43:00,67.4,64.0,29.99,North,359,4.0,6.0,87,0.07,,,0.07,weatherlink.com 1.10,2013-08-28 05:43:00,
2013-08-28 07:58:00,67.2,64.0,30.00,NNW,345,0.0,3.0,88,0.07,,,0.07,weatherlink.com 1.10,2013-08-28 05:58:00,
2013-08-28 08:13:00,67.2,64.0,30.00,North,352,0.0,2.0,89,0.07,,,0.07,weatherlink.com 1.10,2013-08-28 06:13:00,
2013-08-28 08:28:00,67.6,65.0,30.00,NNE,17,0.0,3.0,90,0.02,,,0.07,weatherlink.com 1.10,2013-08-28 06:28:00,
2013-08-28 08:43:00,67.2,64.0,30.00,NE,46,1.0,2.0,89,0.00,,,0.07,weatherlink.com 1.10,2013-08-28 06:43:00,
2013-08-28 08:58:00,67.6,64.0,30.00,NE,44,2.0,3.0,89,0.00,,,0.07,weatherlink.com 1.10,2013-08-28 06:58:00,
2013-08-28 09:13:00,68.1,65.0,30.00,East,91,1.0,4.0,89,0.00,,,0.07,weatherlink.com 1.10,2013-08-28 07:13:00,
2013-08-28 09:28:00,68.7,65.0,30.00,ENE,59,3.0,4.0,87,0.00,,,0.07,weatherlink.com 1.10,2013-08-28 07:28:00,
2013-08-28 12:36:00,76.2,62.0,30.00,NE,56,9.0,14.0,61,0.00,,,0.07,weatherlink.com 1.10,2013-08-28 10:36:00,
2013-08-28 12:42:00,76.1,61.0,30.00,ENE,58,8.0,14.0,59,0.00,,,0.07,weatherlink.com 1.10,2013-08-28 10:42:00,
2013-08-28 12:57:00,76.3,60.0,30.00,NE,47,6.0,12.0,58,0.00,,,0.07,weatherlink.com 1.10,2013-08-28 10:57:00,
2013-08-28 13:12:00,76.7,61.0,30.00,NNE,15,9.0,13.0,58,0.00,,,0.07,weatherlink.com 1.10,2013-08-28 11:12:00,
2013-08-28 13:27:00,77.1,60.0,30.01,NE,39,9.0,10.0,56,0.00,,,0.07,weatherlink.com 1.10,2013-08-28 11:27:00,
2013-08-28 13:42:00,77.0,60.0,30.01,NNE,18,6.0,11.0,57,0.00,,,0.07,weatherlink.com 1.10,2013-08-28 11:42:00,
2013-08-28 13:57:00,78.2,61.0,30.00,ENE,66,6.0,12.0,56,0.00,,,0.07,weatherlink.com 1.10,2013-08-28 11:57:00,
2013-08-28 14:12:00,79.0,61.0,30.00,NE,46,6.0,11.0,55,0.00,,,0.07,weatherlink.com 1.10,2013-08-28 12:12:00,
2013-08-28 14:27:00,79.0,63.0,29.99,ENE,58,9.0,13.0,58,0.00,,,0.07,weatherlink.com 1.10,2013-08-28 12:27:00,
2013-08-28 14:42:00,79.4,62.0,29.99,NE,53,9.0,14.0,56,0.00,,,0.07,weatherlink.com 1.10,2013-08-28 12:42:00,
2013-08-28 14:57:00,79.2,63.0,29.98,NE,41,14.0,14.0,57,0.00,,,0.07,weatherlink.com 1.10,2013-08-28 12:57:00,
2013-08-28 15:12:00,79.9,63.0,29.97,NE,37,14.0,16.0,56,0.00,,,0.07,weatherlink.com 1.10,2013-08-28 13:12:00,
2013-08-28 15:27:00,79.6,62.0,29.97,East,89,9.0,15.0,56,0.00,,,0.07,weatherlink.com 1.10,2013-08-28 13:27:00,
2013-08-28 15:42:00,79.4,62.0,29.96,ENE,58,6.0,14.0,56,0.00,,,0.07,weatherlink.com 1.10,2013-08-28 13:42:00,
2013-08-28 15:57:00,79.7,63.0,29.96,NE,49,9.0,13.0,56,0.00,,,0.07,weatherlink.com 1.10,2013-08-28 13:57:00,
2013-08-28 16:12:00,79.6,62.0,29.96,North,3,12.0,17.0,56,0.00,,,0.07,weatherlink.com 1.10,2013-08-28 14:12:00,
2013-08-28 16:27:00,79.4,62.0,29.96,NNE,33,9.0,17.0,56,0.00,,,0.07,weatherlink.com 1.10,2013-08-28 14:27:00,
2013-08-28 16:42:00,79.0,62.0,29.96,NE,36,9.0,17.0,57,0.00,,,0.07,weatherlink.com 1.10,2013-08-28 14:42:00,
2013-08-28 16:57:00,79.1,62.0,29.97,ENE,60,8.0,15.0,57,0.00,,,0.07,weatherlink.com 1.10,2013-08-28 14:57:00,
2013-08-28 17:12:00,78.7,63.0,29.97,NE,37,11.0,21.0,58,0.00,,,0.07,weatherlink.com 1.10,2013-08-28 15:12:00,
2013-08-28 17:27:00,79.0,63.0,29.97,NE,41,6.0,13.0,58,0.00,,,0.07,weatherlink.com 1.10,2013-08-28 15:27:00,
2013-08-28 17:42:00,78.3,62.0,29.97,NE,49,9.0,18.0,58,0.00,,,0.07,weatherlink.com 1.10,2013-08-28 15:42:00,
2013-08-28 17:57:00,78.5,62.0,29.97,East,97,7.0,16.0,57,0.00,,,0.07,weatherlink.com 1.10,2013-08-28 15:57:00,
2013-08-28 18:12:00,77.9,62.0,29.97,NNE,25,11.0,16.0,58,0.00,,,0.07,weatherlink.com 1.10,2013-08-28 16:12:00,
2013-08-28 18:27:00,76.8,62.0,29.97,North,8,10.0,16.0,60,0.00,,,0.07,weatherlink.com 1.10,2013-08-28 16:27:00,
2013-08-28 18:57:00,76.6,62.0,29.97,NNE,15,9.0,17.0,60,0.00,,,0.07,weatherlink.com 1.10,2013-08-28 16:57:00,
2013-08-28 19:12:00,76.0,61.0,29.97,NE,49,7.0,16.0,61,0.00,,,0.07,weatherlink.com 1.10,2013-08-28 17:12:00,
2013-08-28 19:27:00,75.5,61.0,29.97,NNE,12,10.0,19.0,61,0.00,,,0.07,weatherlink.com 1.10,2013-08-28 17:27:00,
2013-08-28 19:42:00,75.0,61.0,29.97,ENE,68,15.0,18.0,61,0.00,,,0.07,weatherlink.com 1.10,2013-08-28 17:42:00,
2013-08-28 19:57:00,74.4,61.0,29.97,NNE,33,10.0,13.0,63,0.00,,,0.07,weatherlink.com 1.10,2013-08-28 17:57:00,
2013-08-28 20:27:00,73.6,62.0,29.98,NE,43,7.0,13.0,66,0.00,,,0.07,weatherlink.com 1.10,2013-08-28 18:27:00,
2013-08-28 20:42:00,73.0,61.0,29.98,NE,47,8.0,10.0,67,0.00,,,0.07,weatherlink.com 1.10,2013-08-28 18:42:00,
2013-08-28 20:57:00,72.8,62.0,29.99,NE,41,7.0,11.0,68,0.00,,,0.07,weatherlink.com 1.10,2013-08-28 18:57:00,
2013-08-28 21:12:00,72.4,62.0,30.00,NNE,25,5.0,12.0,69,0.00,,,0.07,weatherlink.com 1.10,2013-08-28 19:12:00,
2013-08-28 21:27:00,72.2,61.0,30.00,NNE,28,8.0,12.0,69,0.00,,,0.07,weatherlink.com 1.10,2013-08-28 19:27:00,
2013-08-28 21:42:00,72.1,62.0,30.00,North,4,7.0,12.0,70,0.00,,,0.07,weatherlink.com 1.10,2013-08-28 19:42:00,
2013-08-28 21:57:00,72.0,61.0,30.00,NE,40,10.0,13.0,69,0.00,,,0.07,weatherlink.com 1.10,2013-08-28 19:57:00,
2013-08-28 22:12:00,72.0,61.0,30.00,NNW,338,7.0,13.0,69,0.00,,,0.07,weatherlink.com 1.10,2013-08-28 20:12:00,
2013-08-28 22:27:00,71.9,61.0,30.00,NNE,15,6.0,12.0,69,0.00,,,0.07,weatherlink.com 1.10,2013-08-28 20:27:00,
2013-08-28 22:42:00,71.8,61.0,30.00,NE,49,4.0,9.0,69,0.00,,,0.07,weatherlink.com 1.10,2013-08-28 20:42:00,
2013-08-28 22:57:00,71.2,61.0,30.01,NE,46,3.0,8.0,70,0.00,,,0.07,weatherlink.com 1.10,2013-08-28 20:57:00,
2013-08-28 23:13:00,70.7,61.0,30.02,NE,40,4.0,6.0,72,0.00,,,0.07,weatherlink.com 1.10,2013-08-28 21:13:00,
2013-08-28 23:28:00,70.4,61.0,30.02,NE,49,1.0,3.0,73,0.00,,,0.07,weatherlink.com 1.10,2013-08-28 21:28:00,
2013-08-28 23:43:00,70.4,62.0,30.03,NE,42,3.0,4.0,74,0.00,,,0.07,weatherlink.com 1.10,2013-08-28 21:43:00,
2013-08-28 23:58:00,70.5,61.0,30.04,ENE,63,1.0,4.0,73,0.00,,,0.07,weatherlink.com 1.10,2013-08-28 21:58:00,